Hit Tracker is now ESPN Home Run Tracker! Hit Tracker founder Greg Rybarczyk is now collaborating with the ESPN Stats & Information Group to continue tracking all MLB home runs, and helping baseball fans know "How Far It Really Went!™" Please credit any information on this site to ESPN Stats & Information Group. For more information and analysis on home runs, please contact founder Greg Rybarczyk. E-Mail ESPN Home Run Tracker
Main Page | Ballparks | Park Overlays | Glossary | Highlight Homers | Feedback | Bio | 3 Types of HR's | AAA Home Run Derby Last Updated: August 22, 2014, 7:17 am PST
Welcome to the ESPN Home Run Tracker! Check out the ESPN MLB Scoreboard throughout the 2014 season! Contact us at grybar@hittrackeronline.com.
Season:
Ballpark detail for Citi Field
Ballpark # of Home Runs HR per game Avg.
True
Distance
Avg.
Speed
Off
Bat
Avg.
Std.
Dist.
Citi Field 106 1.71 393.3 103.7 392.9

Scatter Plot of Home Runs Citi Field
 Overlay Ballpark:
Without range rings   With range rings

2014 Season Home Runs for Citi Field
Click headers to sort
Date Video Path Hitter Hitter
Team
Pitcher Pitcher
Team
 ^
INN Ballpark Type/
Luck
True
Dist.
Speed
Off
Bat
Elev.
Angle
Horiz.
Angle
Apex Impact Due To: Std.
Dist.
#
Parks
Wind Temp. Alt.
05/24/14 Video View Wright, David NYM Collmenter, Josh ARI 5 Citi Field PL 389 105.7 28.6 121.8 83 -2 -1 0 393 30
07/07/14 Video View Wright, David NYM Minor, Mike ATL 3 Citi Field PL 393 107.4 25.5 118.5 74 -2 1 0 394 30
07/07/14 Video View Granderson, Curtis NYM Avilan, Luis ATL 8 Citi Field JE 377 100.4 27.2 69.1 75 0 1 0 376 24
07/08/14 Video View Granderson, Curtis NYM Teheran, Julio ATL 1 Citi Field PL 385 103.8 27.4 61.3 74 2 1 0 383 30
07/09/14 Video View d'Arnaud, Travis NYM Santana, Ervin ATL 7 Citi Field PL 389 101.7 30.5 113.0 94 0 2 0 388 30
08/15/14 Video View Campbell, Eric NYM Wood, Travis CHC 4 Citi Field JE 375 96.5 30.4 106.6 90 6 0 0 369 2
08/18/14 Video View Duda, Lucas NYM Hendricks, Kyle CHC 4 Citi Field PL 414 103.8 25.6 82.3 85 -1 1 0 414 28
04/04/14 Video View Duda, Lucas NYM Leake, Mike CIN 4 Citi Field PL 405 102.0 29.2 76.1 96 7 -5 0 402 29
04/04/14 Video View Duda, Lucas NYM Leake, Mike CIN 6 Citi Field JE 377 104.3 24.6 64.6 63 2 -2 0 376 24
04/05/14 Video View Davis, Ike NYM Hoover, J.J. CIN 9 Citi Field PL 392 103.4 26.6 72.9 84 -4 -2 0 398 30
04/05/14 Video View Granderson, Curtis NYM Cueto, Johnny CIN 6 Citi Field PL 397 105.9 27.3 74.8 101 -16 -2 0 417 30
05/20/14 Video View Duda, Lucas NYM Beckett, Josh LAD 6 Citi Field PL 393 102.5 28.1 74.6 95 -7 0 0 400 30
05/20/14 Video View Granderson, Curtis NYM Beckett, Josh LAD 6 Citi Field PL 419 106.8 29.5 77.6 117 -11 1 0 429 30
05/21/14 Video View Campbell, Eric NYM Ryu, Hyun-Jin LAD 6 Citi Field JE 372 104.5 23.8 114.5 61 -1 -1 0 373 19
04/26/14 Video View Abreu, Bobby NYM Slowey, Kevin MIA 1 Citi Field PL 375 102.6 26.3 65.6 73 -2 -2 0 379 29
04/27/14 Video View Young, Chris NYM Koehler, Tom MIA 5 Citi Field PL 393 105.8 24.7 109.4 74 -2 -1 0 396 30
07/11/14 Video View Duda, Lucas NYM Alvarez, Henderson MIA 3 Citi Field PL 417 108.1 26.1 68.8 81 3 1 0 413 30
07/11/14 Video View Wright, David NYM Alvarez, Henderson MIA 5 Citi Field ND 425 108.0 28.2 109.5 96 1 0 0 423 30
07/12/14 Video View Young, Chris NYM Morris, Bryan MIA 7 Citi Field PL 385 101.1 31.7 116.4 98 3 1 0 380 30
06/10/14 Video View Murphy, Daniel NYM Estrada, Marco MIL 3 Citi Field JE 371 106.7 22.8 62.2 56 0 0 0 371 24
06/10/14 Video View Teagarden, Taylor NYM Estrada, Marco MIL 6 Citi Field JE 345 97.4 27.4 59.6 66 -2 0 0 346 9
05/26/14 Video View Sanchez, Gaby PIT Rice, Scott NYM 8 Citi Field JE 357 99.8 31.4 112.8 104 -24 2 0 379 30
05/25/14 Video View Owings, Chris ARI Montero, Rafael NYM 1 Citi Field PL/L 351 96.4 36.7 115.6 115 0 1 0 349 27
03/31/14 Video View LaRoche, Adam WSH Gee, Dillon NYM 2 Citi Field PL 410 106.0 29.6 71.0 114 0 -5 0 415 30
03/31/14 Video View Rendon, Anthony WSH Lannan, John NYM 10 Citi Field PL 388 101.0 31.7 103.6 113 -4 -4 0 396 30
04/02/14 Video View Desmond, Ian WSH Colon, Bartolo NYM 5 Citi Field PL 419 110.1 21.4 99.9 66 0 0 0 419 30
04/02/14 Video View Gonzalez, Gio WSH Colon, Bartolo NYM 5 Citi Field JE 382 98.6 26.5 100.4 79 1 -2 0 382 4
04/03/14 Video View Zimmerman, Ryan WSH Wheeler, Zack NYM 2 Citi Field PL 403 103.6 30.0 109.6 101 3 -2 0 402 30
04/04/14 Video View Bruce, Jay CIN Lannan, John NYM 7 Citi Field JE 418 109.3 21.4 81.6 66 0 -1 0 419 26
04/05/14 Video View Ludwick, Ryan CIN Gee, Dillon NYM 5 Citi Field PL 377 106.3 25.5 122.9 68 -3 -2 0 382 30
04/05/14 Video View Phillips, Brandon CIN Gee, Dillon NYM 8 Citi Field PL 375 101.2 28.1 110.3 88 -8 -2 0 385 30
04/18/14 Video View Freeman, Freddie ATL Germen, Gonzalez NYM 8 Citi Field JE 396 103.0 24.5 78.4 73 1 -2 0 397 22
04/19/14 Video View Upton, Justin ATL Valverde, Jose NYM 9 Citi Field JE 418 103.9 28.2 85.7 109 -4 -2 0 425 27
04/25/14 Video View Saltalamacchia, Jarrod MIA Germen, Gonzalez NYM 8 Citi Field JE 387 101.1 24.5 101.6 68 3 -1 0 385 4
04/25/14 Video View Jones, Garrett MIA Germen, Gonzalez NYM 8 Citi Field PL 352 96.4 30.7 54.6 75 8 -2 0 346 25
04/26/14 Video View Stanton, Giancarlo MIA Mejia, Jenrry NYM 6 Citi Field PL 394 101.7 27.5 78.2 93 -4 -2 0 401 29
04/26/14 Video View Saltalamacchia, Jarrod MIA Farnsworth, Kyle NYM 10 Citi Field JE 381 100.9 23.8 101.0 68 0 0 0 381 3
05/10/14 Video View Rollins, Jimmy PHI Gee, Dillon NYM 2 Citi Field PL 403 101.3 29.9 73.5 94 8 -1 0 395 30
05/14/14 Video View Solarte, Yangervis NYY Montero, Rafael NYM 4 Citi Field PL 366 105.6 24.0 56.8 58 0 -1 0 367 26
05/14/14 Video View Teixeira, Mark NYY Montero, Rafael NYM 6 Citi Field PL 403 101.8 32.0 75.8 113 6 -2 0 399 29
05/20/14 Video View Gonzalez, Adrian LAD Montero, Rafael NYM 5 Citi Field JE 413 109.1 21.1 80.2 64 2 0 0 411 27
05/21/14 Video View Gonzalez, Adrian LAD deGrom, Jacob NYM 2 Citi Field PL 382 103.3 33.1 63.6 112 -7 0 0 389 30
05/21/14 Video View Puig, Yasiel LAD deGrom, Jacob NYM 6 Citi Field JE/L 404 103.5 22.5 95.2 71 2 0 0 401 5
05/21/14 Video View Ramirez, Hanley LAD deGrom, Jacob NYM 6 Citi Field PL 382 105.3 22.9 108.6 61 0 0 0 381 20
05/22/14 Video View Turner, Justin LAD Niese, Jonathon NYM 7 Citi Field PL 396 106.5 23.0 105.4 65 0 -1 -1 397 28
06/12/14 Video View Ramirez, Aramis MIL Niese, Jonathon NYM 2 Citi Field PL/L 402 98.4 33.4 97.2 113 15 0 0 387 4
06/12/14 Video View Lucroy, Jonathan MIL Torres, Carlos NYM 13 Citi Field ND 403 109.1 26.5 123.0 74 2 0 0 401 30
06/13/14 Video View Rivera, Rene SD Colon, Bartolo NYM 2 Citi Field PL 381 99.8 31.0 104.8 106 -8 0 0 389 30
06/14/14 Video View Headley, Chase SD Germen, Gonzalez NYM 8 Citi Field PL 426 109.7 23.5 78.3 85 -2 -1 0 429 29
06/25/14 Video View Moss, Brandon OAK Wheeler, Zack NYM 1 Citi Field PL 406 106.1 33.7 61.2 115 7 1 0 398 29
06/25/14 Video View Crisp, Coco OAK Eveland, Dana NYM 4 Citi Field JE 391 102.6 28.6 113.1 85 1 0 0 389 25
07/04/14 Video View Choo, Shin-Soo TEX Niese, Jonathon NYM 1 Citi Field PL 434 110.9 22.2 80.1 74 2 0 -1 432 30
07/04/14 Video View Beltre, Adrian TEX Torres, Carlos NYM 5 Citi Field JE/L 428 114.2 16.7 90.6 52 7 1 0 421 16
07/05/14 Video View Chirinos, Robinson TEX Colon, Bartolo NYM 1 Citi Field JE 390 101.5 25.4 78.5 79 -3 1 0 392 25
07/05/14 Video View Beltre, Adrian TEX Colon, Bartolo NYM 3 Citi Field PL 388 104.6 27.4 115.4 82 -5 1 0 392 30
07/06/14 Video View Chirinos, Robinson TEX Wheeler, Zack NYM 4 Citi Field JE 368 100.8 26.8 117.3 69 0 1 0 366 21
07/06/14 Video View Rios, Alex TEX Germen, Gonzalez NYM 8 Citi Field PL 385 101.2 31.6 115.3 98 1 2 0 382 30
07/06/14 Video View Martin, Leonys TEX Germen, Gonzalez NYM 8 Citi Field PL 391 106.0 24.9 65.7 67 0 1 0 389 30
07/12/14 Video View Yelich, Christian MIA Matsuzaka, Daisuke NYM 5 Citi Field JE/L 420 104.7 23.7 86.2 75 2 0 0 418 24
07/29/14 Video View Rollins, Jimmy PHI Gee, Dillon NYM 3 Citi Field JE 388 103.7 24.1 74.1 68 0 1 0 388 26
07/29/14 Video View Sizemore, Grady PHI Gee, Dillon NYM 4 Citi Field ND 385 102.3 31.5 59.1 93 3 0 0 382 30
07/29/14 Video View Utley, Chase PHI Edgin, Josh NYM 7 Citi Field PL 404 103.6 29.1 72.1 95 -1 1 0 404 30
07/30/14 Video View Rollins, Jimmy PHI Wheeler, Zack NYM 7 Citi Field JE/L 344 93.8 31.5 61.0 79 2 1 0 341 6
08/03/14 Video View Pence, Hunter SF Colon, Bartolo NYM 3 Citi Field JE 384 112.2 18.4 103.0 46 0 1 0 383 3
08/03/14 Video View Belt, Brandon SF Colon, Bartolo NYM 4 Citi Field JE 337 99.0 39.3 63.0 136 -8 2 0 342 26
08/03/14 Video View Posey, Buster SF Torres, Carlos NYM 7 Citi Field JE 403 107.9 20.8 80.3 60 1 0 0 401 18
08/03/14 Video View Pence, Hunter SF Eveland, Dana NYM 9 Citi Field ND 426 110.7 21.6 99.5 68 0 1 0 426 30
08/12/14 Video View Harper, Bryce WSH Montero, Rafael NYM 2 Citi Field PL 377 95.3 34.8 118.3 94 29 1 0 348 6
08/12/14 Video View Rendon, Anthony WSH Montero, Rafael NYM 6 Citi Field ND 406 113.5 22.6 119.2 59 3 1 0 403 30
08/12/14 Video View Desmond, Ian WSH Montero, Rafael NYM 6 Citi Field JE 367 103.1 25.5 125.4 60 5 0 0 361 27
08/12/14 Video View Taylor, Michael WSH Torres, Carlos NYM 6 Citi Field JE 381 97.9 31.4 67.7 90 11 1 0 369 21
08/13/14 Video View Cabrera, Asdrubal WSH Familia, Jeurys NYM 8 Citi Field JE 354 102.4 24.1 59.3 57 0 1 0 354 14
08/14/14 Video View LaRoche, Adam WSH Gee, Dillon NYM 1 Citi Field JE 398 98.6 29.8 99.9 96 7 1 0 390 3
08/14/14 Video View Harper, Bryce WSH Gee, Dillon NYM 4 Citi Field PL 417 102.3 28.6 80.6 94 6 1 0 410 29
08/16/14 Video View Castillo, Welington CHC Niese, Jonathon NYM 5 Citi Field PL 406 109.4 20.7 100.6 59 0 0 0 406 23
08/16/14 Video View Ruggiano, Justin CHC Niese, Jonathon NYM 7 Citi Field PL 432 104.6 28.2 94.4 104 2 1 0 429 28
08/17/14 Video View Castro, Starlin CHC Mejia, Jenrry NYM 9 Citi Field JE/L 345 93.7 30.7 58.5 73 8 1 0 336 2
08/18/14 Video View Rizzo, Anthony CHC Carlyle, Buddy NYM 8 Citi Field PL 402 107.8 22.2 76.3 63 0 1 0 402 29
08/18/14 Video View Baez, Javier CHC Mejia, Jenrry NYM 9 Citi Field ND 434 108.9 26.0 103.5 94 -1 1 0 434 30
06/24/14 Video View Young, Chris NYM Kazmir, Scott OAK 2 Citi Field PL 385 101.1 32.2 112.6 104 1 0 0 384 30
06/24/14 Video View Granderson, Curtis NYM Kazmir, Scott OAK 2 Citi Field JE/L 386 107.7 22.0 70.5 56 1 0 0 385 26
06/24/14 Video View Young, Chris (H) NYM Johnson, Jim OAK 5 Citi Field PL 388 100.5 29.6 109.1 91 1 0 0 386 30
06/24/14 Video View d'Arnaud, Travis NYM Kazmir, Scott OAK 3 Citi Field PL 400 104.7 29.1 115.6 90 2 0 0 397 30
06/25/14 Video View Duda, Lucas NYM Mills, Brad OAK 7 Citi Field JE 427 107.6 22.4 85.6 73 0 0 0 427 20
06/25/14 Video View Young, Chris NYM Gregerson, Luke OAK 8 Citi Field PL 362 100.0 28.3 122.3 73 0 0 0 362 30
05/10/14 Video View Wright, David NYM Kendrick, Kyle PHI 1 Citi Field PL 405 100.7 28.9 104.9 93 12 0 0 393 21
05/11/14 Video View Murphy, Daniel NYM Bastardo, Antonio PHI 9 Citi Field PL 402 101.0 30.4 80.3 106 -2 1 0 403 28
07/28/14 Video View d'Arnaud, Travis NYM Burnett, A.J. PHI 5 Citi Field PL 391 104.7 26.7 117.2 74 4 0 0 387 30
07/30/14 Video View Murphy, Daniel NYM Kendrick, Kyle PHI 5 Citi Field PL 380 98.2 28.2 104.6 83 1 1 0 378 10
07/30/14 Video View Duda, Lucas NYM Aumont, Phillippe PHI 8 Citi Field PL 382 101.1 29.2 62.2 79 5 1 0 376 29
05/28/14 Video View Duda, Lucas NYM Morris, Bryan PIT 8 Citi Field ND 429 108.2 27.9 77.0 110 -4 -2 0 435 30
05/28/14 Video View Wright, David NYM Morton, Charlie PIT 6 Citi Field PL 415 105.9 22.0 94.0 72 1 -1 0 415 20
05/26/14 Video View Duda, Lucas NYM Melancon, Mark PIT 9 Citi Field ND 436 113.3 21.6 78.5 70 0 1 0 435 29
06/15/14 Video View Granderson, Curtis NYM Kennedy, Ian SD 1 Citi Field ND 399 106.1 31.4 65.0 109 -9 1 0 407 30
08/01/14 Video View Duda, Lucas NYM Vogelsong, Ryan SF 8 Citi Field JE 380 97.6 27.8 104.9 75 7 1 0 373 3
08/04/14 Video View Murphy, Daniel NYM Hudson, Tim SF 1 Citi Field JE 390 101.0 26.6 75.4 78 1 1 0 389 25
04/23/14 Video View Duda, Lucas NYM Maness, Seth STL 6 Citi Field ND 431 113.5 22.0 76.5 73 -1 -2 0 434 30
04/24/14 Video View Young, Chris NYM Lynn, Lance STL 5 Citi Field ND 411 107.5 29.5 112.8 101 -2 -2 0 416 30
07/04/14 Video View Duda, Lucas NYM Darvish, Yu TEX 1 Citi Field JE/L 366 95.6 30.4 103.6 92 -3 0 0 369 10
07/05/14 Video View d'Arnaud, Travis NYM Lewis, Colby TEX 4 Citi Field PL 421 105.7 24.3 97.5 85 0 1 0 420 30
07/06/14 Video View Recker, Anthony NYM Tepesch, Nick TEX 1 Citi Field PL 358 99.2 37.5 118.4 124 0 4 0 354 27
07/06/14 Video View Nieuwenhuis, Kirk NYM Tepesch, Nick TEX 6 Citi Field PL 411 101.8 29.1 80.4 98 2 2 0 407 27
03/31/14 Video View Brown, Andrew NYM Strasburg, Stephen WSH 1 Citi Field PL 424 109.8 20.3 94.9 66 2 0 0 423 27
03/31/14 Video View Lagares, Juan NYM Clippard, Tyler WSH 8 Citi Field JE 397 102.2 23.6 96.2 74 0 0 0 398 8
03/31/14 Video View Wright, David NYM Blevins, Jerry WSH 10 Citi Field PL 380 98.8 32.3 102.3 112 -3 -3 0 386 26
08/13/14 Video View d'Arnaud, Travis NYM Soriano, Rafael WSH 9 Citi Field PL 389 102.4 29.0 113.6 86 0 0 0 388 30


About HitTracker | Contact Us
© 2006-2009 HitTrackerOnline